Time;durP1;ratioP1;P1;durP2;ratioP2;P2;SDS_P1;SDS_P2;PMS_P1;PMS_P2;Temp;Humidity;BMP_temperature;BMP_pressure;BME280_temperature;BME280_humidity;BME280_pressure;Samples;Min_cycle;Max_cycle;Signal;HPM_P1;HPM_P2
2024/04/08 00:00:24;;;;;;;5.50;2.47;;;;;;;15.90;100.00;95434.25;1035269;28;20486;-72
2024/04/08 00:00:55;;;;;;;3.95;1.33;;;;;;;15.89;100.00;95437.94;1039358;28;20539;-72
2024/04/08 00:01:25;;;;;;;4.18;1.40;;;;;;;15.90;100.00;95440.31;1035365;28;20497;-72
2024/04/08 00:01:56;;;;;;;5.20;2.38;;;;;;;15.88;100.00;95442.47;1039442;28;20026;-72
2024/04/08 00:02:26;;;;;;;10.20;1.80;;;;;;;15.87;100.00;95434.84;1034861;28;20021;-72
2024/04/08 00:02:57;;;;;;;4.15;1.73;;;;;;;15.87;100.00;95432.19;1035422;28;20026;-72
2024/04/08 00:03:27;;;;;;;8.20;1.85;;;;;;;15.85;100.00;95437.78;1037574;28;20018;-74
2024/04/08 00:03:57;;;;;;;5.03;2.00;;;;;;;15.86;100.00;95435.91;1038862;28;20025;-72
2024/04/08 00:04:28;;;;;;;8.32;1.67;;;;;;;15.84;100.00;95440.75;1037642;28;20014;-72
2024/04/08 00:04:58;;;;;;;5.53;1.77;;;;;;;15.83;100.00;95439.16;1039475;28;20029;-72
2024/04/08 00:05:29;;;;;;;9.93;2.20;;;;;;;15.81;100.00;95439.47;1040836;28;20017;-73
2024/04/08 00:05:59;;;;;;;5.35;2.00;;;;;;;15.73;100.00;95430.41;1035292;28;20029;-72
2024/04/08 00:06:30;;;;;;;4.97;2.03;;;;;;;15.78;100.00;95443.50;1032455;28;21496;-73
2024/04/08 00:07:00;;;;;;;7.47;1.83;;;;;;;15.76;100.00;95440.38;1031190;28;20084;-72
2024/04/08 00:07:31;;;;;;;5.80;1.65;;;;;;;15.76;100.00;95447.53;1026988;28;20060;-72
2024/04/08 00:08:01;;;;;;;9.63;2.20;;;;;;;15.74;100.00;95447.84;1031214;28;20027;-72
2024/04/08 00:08:31;;;;;;;8.07;1.80;;;;;;;15.71;100.00;95448.44;1042304;28;20017;-72
2024/04/08 00:09:03;;;;;;;17.25;2.50;;;;;;;15.69;100.00;95442.69;1042973;28;20025;-72
2024/04/08 00:09:33;;;;;;;16.08;2.92;;;;;;;15.67;100.00;95450.13;1034513;28;20025;-72
2024/04/08 00:10:04;;;;;;;8.73;2.80;;;;;;;15.65;100.00;95446.97;1031024;28;20042;-72
2024/04/08 00:10:37;;;;;;;6.82;2.47;;;;;;;15.59;100.00;95440.22;1027947;28;20015;-72
2024/04/08 00:11:08;;;;;;;8.57;2.85;;;;;;;15.60;100.00;95446.31;1035243;28;20030;-72
2024/04/08 00:11:38;;;;;;;7.03;2.45;;;;;;;15.57;100.00;95447.69;1027694;28;20031;-72
2024/04/08 00:12:09;;;;;;;6.55;1.88;;;;;;;15.56;100.00;95451.44;1027240;28;20015;-72
2024/04/08 00:12:40;;;;;;;10.00;2.45;;;;;;;15.53;100.00;95450.16;1027092;28;20019;-72
2024/04/08 00:13:10;;;;;;;8.75;2.90;;;;;;;15.54;100.00;95449.06;1027327;28;20023;-72
2024/04/08 00:13:41;;;;;;;8.52;2.22;;;;;;;15.50;100.00;95457.91;1031308;28;20674;-73
2024/04/08 00:14:11;;;;;;;8.45;2.35;;;;;;;15.47;100.00;95450.59;1035210;28;20028;-72
2024/04/08 00:14:42;;;;;;;6.63;2.42;;;;;;;15.53;100.00;95457.31;1031301;28;20030;-73
2024/04/08 00:15:13;;;;;;;14.13;3.55;;;;;;;15.50;100.00;95455.28;1039255;28;20048;-72
2024/04/08 00:15:43;;;;;;;9.02;2.55;;;;;;;15.47;100.00;95458.53;1035207;28;20022;-73
2024/04/08 00:16:13;;;;;;;14.65;2.20;;;;;;;15.45;100.00;95461.44;1034640;28;20022;-72
2024/04/08 00:16:44;;;;;;;17.75;3.30;;;;;;;15.41;100.00;95460.50;1039293;28;20068;-72
2024/04/08 00:17:14;;;;;;;5.60;2.00;;;;;;;15.42;100.00;95461.28;1039222;28;20028;-72
2024/04/08 00:17:45;;;;;;;8.95;2.30;;;;;;;15.38;100.00;95455.03;1039168;28;20021;-73
2024/04/08 00:18:15;;;;;;;11.18;2.55;;;;;;;15.41;100.00;95459.72;1035350;28;20018;-72
2024/04/08 00:18:46;;;;;;;6.65;1.75;;;;;;;15.45;100.00;95458.81;1039163;28;20033;-73
2024/04/08 00:19:17;;;;;;;7.80;2.17;;;;;;;15.44;100.00;95453.81;1034468;28;20025;-72
2024/04/08 00:19:47;;;;;;;12.63;2.40;;;;;;;15.50;100.00;95457.91;1027609;28;20838;-72
2024/04/08 00:20:21;;;;;;;10.00;2.35;;;;;;;15.50;100.00;95457.91;1031100;28;20018;-72
2024/04/08 00:21:03;;;;;;;5.70;2.40;;;;;;;15.42;100.00;95453.34;1027689;28;20018;-73
2024/04/08 00:21:34;;;;;;;11.13;2.47;;;;;;;15.40;100.00;95448.34;1031178;28;20150;-72
2024/04/08 00:22:04;;;;;;;6.05;2.05;;;;;;;15.43;100.00;95458.34;1031081;28;20437;-72
2024/04/08 00:22:35;;;;;;;8.75;2.63;;;;;;;15.40;100.00;95458.16;1031068;28;20049;-73
2024/04/08 00:23:05;;;;;;;7.70;2.05;;;;;;;15.40;100.00;95456.28;1026861;28;20015;-73
2024/04/08 00:23:36;;;;;;;7.53;2.47;;;;;;;15.40;100.00;95458.16;1031204;28;20026;-73
2024/04/08 00:24:06;;;;;;;7.13;2.40;;;;;;;15.39;100.00;95459.22;1035322;28;20021;-72
2024/04/08 00:24:36;;;;;;;6.00;2.20;;;;;;;15.39;100.00;95452.09;1035095;28;20026;-72
2024/04/08 00:25:08;;;;;;;9.48;2.50;;;;;;;15.36;100.00;95457.16;1043278;28;20040;-72
2024/04/08 00:25:38;;;;;;;14.45;2.40;;;;;;;15.33;100.00;95442.72;1035062;28;20026;-72
2024/04/08 00:26:08;;;;;;;3.35;1.58;;;;;;;15.34;100.00;95452.19;1027150;28;20027;-72
2024/04/08 00:26:39;;;;;;;8.50;2.03;;;;;;;15.33;100.00;95448.78;1027075;28;20040;-72
2024/04/08 00:27:09;;;;;;;9.60;2.25;;;;;;;15.31;100.00;95453.56;1031088;28;20502;-72
2024/04/08 00:27:40;;;;;;;15.10;2.20;;;;;;;15.29;100.00;95452.28;1031118;28;20606;-72
2024/04/08 00:28:10;;;;;;;11.70;2.03;;;;;;;15.24;100.00;95447.91;1031015;28;20129;-72
2024/04/08 00:28:41;;;;;;;5.18;2.00;;;;;;;15.25;100.00;95446.84;1031183;28;20034;-72
2024/04/08 00:29:12;;;;;;;6.65;2.42;;;;;;;15.23;100.00;95454.28;1030565;28;20033;-71
2024/04/08 00:29:42;;;;;;;5.88;1.95;;;;;;;15.19;100.00;95449.88;1034842;28;20564;-72
2024/04/08 00:30:12;;;;;;;6.35;1.90;;;;;;;15.19;100.00;95448.03;1031102;28;20188;-72
2024/04/08 00:30:43;;;;;;;7.55;1.80;;;;;;;15.16;100.00;95446.00;1031090;28;20034;-72
2024/04/08 00:31:13;;;;;;;4.70;1.83;;;;;;;15.16;100.00;95446.00;1029931;28;20019;-72
2024/04/08 00:31:44;;;;;;;7.55;2.50;;;;;;;15.14;100.00;95442.88;1026819;28;20026;-72
2024/04/08 00:32:14;;;;;;;5.60;1.65;;;;;;;15.14;100.00;95440.22;1031130;28;20093;-72
2024/04/08 00:32:45;;;;;;;8.35;3.47;;;;;;;15.15;100.00;95439.13;1027251;28;20034;-73
2024/04/08 00:33:15;;;;;;;13.63;2.53;;;;;;;15.18;100.00;95435.13;1038634;28;20026;-72
2024/04/08 00:33:45;;;;;;;4.72;1.85;;;;;;;15.14;100.00;95434.94;1022986;28;20023;-72
2024/04/08 00:34:16;;;;;;;4.60;2.20;;;;;;;15.19;100.00;95432.19;1027035;28;20089;-72
2024/04/08 00:34:46;;;;;;;13.95;2.00;;;;;;;15.08;100.00;95412.34;1030931;28;20023;-72
2024/04/08 00:35:17;;;;;;;9.48;1.77;;;;;;;15.20;100.00;95436.38;1035058;28;20010;-72
2024/04/08 00:35:47;;;;;;;8.32;2.42;;;;;;;15.11;100.00;95418.91;1038975;28;20022;-72
2024/04/08 00:36:18;;;;;;;10.93;2.50;;;;;;;15.18;100.00;95425.31;1034299;28;20539;-72
2024/04/08 00:36:48;;;;;;;4.72;2.28;;;;;;;15.16;100.00;95432.78;1031213;28;20711;-72
2024/04/08 00:37:18;;;;;;;9.90;2.53;;;;;;;15.16;100.00;95424.84;1035153;28;20481;-72
2024/04/08 00:37:49;;;;;;;3.38;1.90;;;;;;;15.12;100.00;95426.50;1035166;28;20022;-72
2024/04/08 00:38:19;;;;;;;5.00;1.75;;;;;;;15.11;100.00;95430.25;1046525;28;20031;-72
2024/04/08 00:38:50;;;;;;;8.95;1.98;;;;;;;15.11;100.00;95437.38;1039072;28;20030;-73
2024/04/08 00:39:20;;;;;;;3.95;1.83;;;;;;;15.08;100.00;95426.31;1038648;28;20033;-72
2024/04/08 00:39:51;;;;;;;5.55;1.85;;;;;;;15.08;100.00;95433.47;1030763;28;20062;-72
2024/04/08 00:40:21;;;;;;;5.97;2.00;;;;;;;15.06;100.00;95422.44;1031129;28;20489;-72
2024/04/08 00:40:54;;;;;;;7.18;1.92;;;;;;;15.03;100.00;95428.31;1030938;28;20018;-72
2024/04/08 00:41:25;;;;;;;5.97;1.90;;;;;;;15.03;100.00;95429.09;1027741;28;20015;-73
2024/04/08 00:41:55;;;;;;;8.57;2.00;;;;;;;14.97;100.00;95422.34;1030842;28;20033;-72
2024/04/08 00:42:25;;;;;;;7.72;2.13;;;;;;;15.02;100.00;95432.03;1031080;28;20026;-72
2024/04/08 00:42:56;;;;;;;10.57;2.08;;;;;;;15.00;100.00;95428.91;1026958;28;20031;-72
2024/04/08 00:43:26;;;;;;;8.52;2.05;;;;;;;15.00;100.00;95429.69;1026966;28;20027;-73
2024/04/08 00:43:57;;;;;;;6.13;1.63;;;;;;;15.00;100.00;95423.63;1031043;28;20018;-73
2024/04/08 00:44:28;;;;;;;6.35;1.88;;;;;;;14.98;100.00;95426.56;1031105;28;20015;-72
2024/04/08 00:44:58;;;;;;;6.45;1.73;;;;;;;14.99;100.00;95427.31;1031055;28;20161;-72
2024/04/08 00:45:29;;;;;;;7.72;2.13;;;;;;;14.94;100.00;95417.66;1035814;28;20484;-72
2024/04/08 00:46:00;;;;;;;3.78;1.75;;;;;;;15.01;100.00;95419.91;1032971;28;20134;-72
2024/04/08 00:46:30;;;;;;;8.63;2.35;;;;;;;14.98;100.00;95415.97;1035529;28;20022;-72
2024/04/08 00:47:01;;;;;;;3.78;1.60;;;;;;;14.96;100.00;95417.38;1031250;28;20015;-74
2024/04/08 00:47:31;;;;;;;3.30;1.90;;;;;;;14.94;100.00;95408.97;1035059;28;20060;-72
2024/04/08 00:48:03;;;;;;;8.18;1.40;;;;;;;15.00;100.00;95421.00;1026951;28;20062;-72
2024/04/08 00:48:34;;;;;;;11.05;2.08;;;;;;;14.96;100.00;95412.88;1022539;28;20019;-73
2024/04/08 00:49:05;;;;;;;10.18;2.00;;;;;;;14.96;100.00;95412.88;1027409;28;20015;-73
2024/04/08 00:49:35;;;;;;;14.63;1.98;;;;;;;15.05;100.00;95420.84;1034480;28;20081;-72
2024/04/08 00:50:06;;;;;;;5.85;1.90;;;;;;;15.03;100.00;95409.81;1033408;28;20026;-72
2024/04/08 00:50:37;;;;;;;7.68;1.80;;;;;;;15.02;100.00;95410.88;1034946;28;20698;-73
2024/04/08 00:51:07;;;;;;;12.40;2.30;;;;;;;15.06;100.00;95411.88;1028576;28;20170;-72
2024/04/08 00:51:38;;;;;;;7.78;1.92;;;;;;;15.07;100.00;95416.06;1030913;28;20018;-73
2024/04/08 00:52:09;;;;;;;6.70;2.05;;;;;;;15.06;100.00;95414.50;1031046;28;20668;-72
2024/04/08 00:52:39;;;;;;;6.63;1.80;;;;;;;15.09;100.00;95413.91;1026862;28;20468;-73
2024/04/08 00:53:11;;;;;;;6.55;1.67;;;;;;;15.08;100.00;95410.47;1027496;28;20067;-73
2024/04/08 00:53:41;;;;;;;7.43;1.77;;;;;;;15.06;100.00;95410.00;1027678;28;20027;-73
2024/04/08 00:54:12;;;;;;;8.75;2.53;;;;;;;15.06;100.00;95401.31;1023351;28;20624;-72
2024/04/08 00:54:42;;;;;;;6.40;2.10;;;;;;;15.07;100.00;95403.63;1022812;28;20023;-72
2024/04/08 00:55:13;;;;;;;7.45;2.22;;;;;;;15.09;100.00;95409.41;1022839;28;20007;-74
2024/04/08 00:55:44;;;;;;;4.60;1.70;;;;;;;15.12;100.00;95401.94;1023149;28;20027;-73
2024/04/08 00:56:18;;;;;;;8.27;2.90;;;;;;;15.10;100.00;95402.25;1027150;28;20430;-72
2024/04/08 00:56:48;;;;;;;5.43;2.08;;;;;;;15.10;100.00;95396.97;1033071;28;20084;-72
2024/04/08 00:57:18;;;;;;;3.95;2.08;;;;;;;14.99;100.00;95385.06;1030915;28;20473;-73
2024/04/08 00:57:49;;;;;;;6.85;1.88;;;;;;;15.05;100.00;95397.84;1035483;28;20109;-72
2024/04/08 00:58:20;;;;;;;4.47;1.90;;;;;;;15.01;100.00;95394.25;1039046;28;20029;-72
2024/04/08 00:58:50;;;;;;;10.35;2.78;;;;;;;15.03;100.00;95397.38;1034697;28;20034;-73
2024/04/08 00:59:21;;;;;;;6.40;1.70;;;;;;;15.00;100.00;95403.28;1030406;28;20103;-72
2024/04/08 00:59:52;;;;;;;10.13;2.20;;;;;;;14.94;100.00;95393.88;1030936;28;20052;-72
2024/04/08 01:00:22;;;;;;;8.68;1.95;;;;;;;14.97;100.00;95397.81;1026857;28;20019;-72
2024/04/08 01:00:53;;;;;;;8.38;1.83;;;;;;;14.92;100.00;95400.53;1026733;28;20030;-72
2024/04/08 01:01:23;;;;;;;5.20;2.03;;;;;;;14.93;100.00;95405.53;1023152;28;20015;-73
2024/04/08 01:01:53;;;;;;;7.70;1.88;;;;;;;14.89;100.00;95399.28;1030897;28;20015;-72
2024/04/08 01:02:24;;;;;;;11.27;2.72;;;;;;;14.90;100.00;95400.06;1029278;28;20025;-72
2024/04/08 01:02:57;;;;;;;11.30;2.63;;;;;;;14.90;100.00;95402.72;1030994;28;20642;-73
2024/04/08 01:03:27;;;;;;;8.18;1.95;;;;;;;14.85;100.00;95396.47;1030901;28;20021;-74
2024/04/08 01:03:58;;;;;;;8.30;2.00;;;;;;;14.87;100.00;95392.75;1038906;28;20513;-72
2024/04/08 01:04:29;;;;;;;9.38;2.22;;;;;;;14.87;100.00;95400.66;1031191;28;20502;-73
2024/04/08 01:04:59;;;;;;;10.70;2.60;;;;;;;14.85;100.00;95396.47;1026907;28;20027;-73
2024/04/08 01:05:34;;;;;;;6.80;2.03;;;;;;;14.84;100.00;95400.16;1027241;28;20106;-72
2024/04/08 01:06:04;;;;;;;6.05;2.40;;;;;;;14.77;100.00;95389.25;1035400;28;20025;-73
2024/04/08 01:06:35;;;;;;;5.55;2.20;;;;;;;14.79;100.00;95402.16;1035512;28;20513;-72
2024/04/08 01:07:05;;;;;;;16.02;2.00;;;;;;;14.80;100.00;95401.84;1038952;28;20026;-73
2024/04/08 01:07:35;;;;;;;8.85;2.05;;;;;;;14.77;100.00;95402.44;1034903;28;20034;-73
2024/04/08 01:08:06;;;;;;;7.18;2.38;;;;;;;14.74;100.00;95402.25;1035009;28;20025;-72
2024/04/08 01:08:37;;;;;;;4.40;2.00;;;;;;;14.74;100.00;95403.03;1038963;28;20093;-72
2024/04/08 01:09:08;;;;;;;11.25;2.63;;;;;;;14.73;100.00;95404.13;1039010;28;20071;-73
2024/04/08 01:09:39;;;;;;;8.30;3.05;;;;;;;14.73;100.00;95405.97;1042685;28;20055;-72
2024/04/08 01:10:09;;;;;;;14.27;4.13;;;;;;;14.74;100.00;95399.63;1035222;28;20018;-72
2024/04/08 01:10:40;;;;;;;13.70;3.60;;;;;;;14.72;100.00;95396.47;1030908;28;20016;-72
2024/04/08 01:11:11;;;;;;;9.75;3.60;;;;;;;14.66;100.00;95389.75;1034766;28;20022;-73
2024/04/08 01:11:43;;;;;;;10.27;3.25;;;;;;;14.66;100.00;95393.19;1030994;28;20027;-73
2024/04/08 01:12:13;;;;;;;7.68;2.30;;;;;;;14.67;100.00;95397.38;1030907;28;20049;-73
2024/04/08 01:12:44;;;;;;;6.25;2.33;;;;;;;14.67;100.00;95399.25;1022849;28;20035;-72
2024/04/08 01:13:14;;;;;;;9.48;2.15;;;;;;;14.64;100.00;95394.56;1026780;28;20030;-73
2024/04/08 01:13:45;;;;;;;3.75;1.88;;;;;;;14.64;100.00;95400.59;1031037;28;20022;-72
2024/04/08 01:14:16;;;;;;;3.78;2.00;;;;;;;14.65;100.00;95398.75;1036228;28;20494;-72
2024/04/08 01:14:47;;;;;;;9.80;1.70;;;;;;;14.67;100.00;95404.53;1030926;28;20034;-72
2024/04/08 01:15:18;;;;;;;6.72;1.77;;;;;;;14.63;100.00;95403.56;1034892;28;20101;-72
2024/04/08 01:15:49;;;;;;;9.13;2.10;;;;;;;14.61;100.00;95393.28;1031104;28;20458;-73
2024/04/08 01:16:19;;;;;;;7.80;1.60;;;;;;;14.54;100.00;95384.97;1031238;28;20018;-72
2024/04/08 01:16:50;;;;;;;8.48;2.00;;;;;;;14.53;100.00;95396.63;1022956;29;20059;-72
2024/04/08 01:17:20;;;;;;;8.98;2.08;;;;;;;14.55;100.00;95400.53;1030735;28;20074;-73
2024/04/08 01:17:52;;;;;;;8.32;2.20;;;;;;;14.55;100.00;95402.38;1030902;28;20019;-72
2024/04/08 01:18:22;;;;;;;6.95;2.05;;;;;;;14.54;100.00;95406.09;1035064;28;20044;-72
2024/04/08 01:18:53;;;;;;;7.13;1.95;;;;;;;14.50;100.00;95405.09;1034820;28;20841;-72
2024/04/08 01:19:24;;;;;;;6.97;2.83;;;;;;;14.47;100.00;95401.19;1030833;28;20058;-73
2024/04/08 01:19:54;;;;;;;9.70;2.80;;;;;;;14.36;100.00;95389.28;1030238;28;20498;-73
2024/04/08 01:20:24;;;;;;;11.13;3.13;;;;;;;14.41;100.00;95406.88;1026996;28;20030;-73
2024/04/08 01:20:55;;;;;;;7.68;2.60;;;;;;;14.37;100.00;95407.44;1026826;28;20031;-73
2024/04/08 01:21:25;;;;;;;9.80;2.50;;;;;;;14.34;100.00;95394.84;1030780;28;20047;-73
2024/04/08 01:21:56;;;;;;;7.18;2.65;;;;;;;14.36;100.00;95402.47;1030545;28;20026;-72
2024/04/08 01:22:30;;;;;;;10.30;2.78;;;;;;;14.35;100.00;95409.63;1026508;28;20026;-74
2024/04/08 01:23:00;;;;;;;6.13;2.10;;;;;;;14.29;100.00;95400.22;1031335;28;20128;-73
2024/04/08 01:23:37;;;;;;;9.80;2.58;;;;;;;14.31;100.00;95407.84;1027472;28;20265;-72
2024/04/08 01:24:08;;;;;;;7.35;2.17;;;;;;;14.31;100.00;95403.34;1032395;28;20091;-72
2024/04/08 01:24:38;;;;;;;10.43;2.22;;;;;;;14.27;100.00;95399.72;1027764;28;20027;-72
2024/04/08 01:25:09;;;;;;;5.97;2.03;;;;;;;14.25;100.00;95401.09;1028697;28;20091;-73
2024/04/08 01:25:39;;;;;;;7.63;1.75;;;;;;;14.23;100.00;95396.13;1034791;28;20028;-72
2024/04/08 01:26:10;;;;;;;9.27;2.70;;;;;;;14.15;100.00;95389.69;1034959;28;20076;-72
2024/04/08 01:26:40;;;;;;;6.95;1.80;;;;;;;14.16;100.00;95395.75;1035074;28;20017;-72
2024/04/08 01:27:10;;;;;;;4.05;1.70;;;;;;;14.21;100.00;95395.63;1030849;28;20030;-72
2024/04/08 01:27:41;;;;;;;8.13;2.28;;;;;;;14.15;100.00;95400.25;1034959;28;20429;-72
2024/04/08 01:28:12;;;;;;;5.45;1.83;;;;;;;14.17;100.00;95402.56;1030662;28;20021;-72
2024/04/08 01:28:42;;;;;;;5.63;2.10;;;;;;;14.14;100.00;95389.97;1030977;28;20018;-72
2024/04/08 01:29:13;;;;;;;7.10;2.47;;;;;;;14.16;100.00;95403.66;1022229;29;20023;-71
2024/04/08 01:29:43;;;;;;;13.65;2.72;;;;;;;14.13;100.00;95405.00;1025144;28;20027;-72
2024/04/08 01:30:20;;;;;;;10.07;2.90;;;;;;;14.05;100.00;95397.78;1026805;28;20023;-73
2024/04/08 01:30:50;;;;;;;6.65;1.95;;;;;;;14.05;100.00;95404.91;1026866;28;20062;-73
2024/04/08 01:31:21;;;;;;;5.30;2.35;;;;;;;14.00;100.00;95395.25;1026738;28;20097;-72
2024/04/08 01:31:52;;;;;;;12.05;2.00;;;;;;;13.96;100.00;95396.13;1023801;28;20031;-72
2024/04/08 01:32:22;;;;;;;6.40;2.60;;;;;;;13.94;100.00;95396.41;1027606;28;20022;-72
2024/04/08 01:32:53;;;;;;;7.40;1.90;;;;;;;13.91;100.00;95404.91;1034839;28;20080;-72
2024/04/08 01:33:23;;;;;;;5.25;2.50;;;;;;;13.90;100.00;95393.56;1034920;28;20021;-73
2024/04/08 01:33:53;;;;;;;5.45;2.15;;;;;;;13.91;100.00;95396.97;1030829;28;20015;-72
2024/04/08 01:34:24;;;;;;;6.10;2.35;;;;;;;13.90;100.00;95398.06;1026931;28;20030;-72
2024/04/08 01:34:54;;;;;;;4.82;1.50;;;;;;;13.87;100.00;95396.00;1030794;28;20037;-72
2024/04/08 01:35:25;;;;;;;3.10;1.83;;;;;;;13.89;100.00;95392.00;1037505;28;20100;-71
2024/04/08 01:36:04;;;;;;;9.10;2.13;;;;;;;13.87;100.00;95391.50;1043029;28;20135;-73
2024/04/08 01:36:34;;;;;;;7.28;1.92;;;;;;;13.88;100.00;95395.72;1043070;28;20508;-73
2024/04/08 01:37:04;;;;;;;10.32;2.65;;;;;;;13.82;100.00;95391.63;1043268;28;20009;-73
2024/04/08 01:37:35;;;;;;;6.68;1.73;;;;;;;13.78;100.00;95393.28;1039061;28;20014;-72
2024/04/08 01:38:05;;;;;;;5.63;1.67;;;;;;;13.79;100.00;95401.97;1034709;28;20026;-72
2024/04/08 01:38:37;;;;;;;15.85;2.42;;;;;;;13.76;100.00;95392.00;1026789;28;20027;-72
2024/04/08 01:39:09;;;;;;;8.95;1.90;;;;;;;13.70;100.00;95399.19;1022855;29;20115;-72
2024/04/08 01:39:40;;;;;;;4.10;1.80;;;;;;;13.69;100.00;95397.66;1023273;28;20062;-73
2024/04/08 01:40:10;;;;;;;8.85;2.22;;;;;;;13.70;100.00;95399.19;1028073;28;20026;-72
2024/04/08 01:40:40;;;;;;;6.93;2.10;;;;;;;13.64;100.00;95384.53;1030683;28;20027;-74
2024/04/08 01:41:11;;;;;;;15.35;2.50;;;;;;;13.64;100.00;95384.53;1027005;28;20030;-73
2024/04/08 01:41:41;;;;;;;11.82;2.50;;;;;;;13.61;100.00;95395.66;1029824;28;20026;-73
2024/04/08 01:42:12;;;;;;;10.55;2.40;;;;;;;13.55;100.00;95386.28;1030825;28;20494;-73
2024/04/08 01:42:42;;;;;;;10.57;2.60;;;;;;;13.55;100.00;95394.19;1031007;28;20026;-72
2024/04/08 01:43:13;;;;;;;8.68;1.88;;;;;;;13.51;100.00;95390.56;1038972;28;20029;-72
2024/04/08 01:43:43;;;;;;;11.30;2.03;;;;;;;13.53;100.00;95398.97;1034847;28;20556;-73
2024/04/08 01:44:14;;;;;;;4.15;2.30;;;;;;;13.51;100.00;95403.75;1034677;28;20022;-72
2024/04/08 01:44:45;;;;;;;3.92;1.48;;;;;;;13.47;100.00;95397.50;1030813;28;20061;-72
2024/04/08 01:45:16;;;;;;;7.18;2.38;;;;;;;13.38;100.00;95392.09;1031334;28;20911;-73
2024/04/08 01:45:46;;;;;;;11.52;2.15;;;;;;;13.42;100.00;95401.78;1030972;28;20041;-72
2024/04/08 01:46:17;;;;;;;11.32;2.35;;;;;;;13.34;100.00;95397.16;1022928;28;20399;-72
2024/04/08 01:46:47;;;;;;;6.57;1.95;;;;;;;13.37;100.00;95391.31;1030555;28;20018;-73
2024/04/08 01:47:18;;;;;;;6.88;1.70;;;;;;;13.30;100.00;95385.63;1030887;28;20110;-72
2024/04/08 01:47:48;;;;;;;9.38;1.95;;;;;;;13.39;100.00;95396.31;1026822;28;20409;-73
2024/04/08 01:48:18;;;;;;;8.45;2.10;;;;;;;13.31;100.00;95387.22;1022671;28;20030;-72
2024/04/08 01:48:49;;;;;;;6.03;1.75;;;;;;;13.35;100.00;95395.31;1022704;29;20019;-72
2024/04/08 01:49:19;;;;;;;7.80;1.98;;;;;;;13.32;100.00;95399.31;1022315;28;20643;-72
2024/04/08 01:49:50;;;;;;;5.65;1.98;;;;;;;13.30;100.00;95395.38;1030664;28;20031;-75
2024/04/08 01:50:20;;;;;;;7.90;1.90;;;;;;;13.26;100.00;95389.13;1030893;28;20022;-73
2024/04/08 01:50:51;;;;;;;5.28;2.00;;;;;;;13.28;100.00;95398.31;1030702;28;20054;-72
2024/04/08 01:51:21;;;;;;;4.95;1.80;;;;;;;13.28;100.00;95397.50;1026832;28;20498;-74
2024/04/08 01:51:51;;;;;;;9.10;1.85;;;;;;;13.28;100.00;95397.50;1030647;28;20372;-72
2024/04/08 01:52:22;;;;;;;5.95;2.28;;;;;;;13.26;100.00;95395.19;1035116;28;20600;-72
2024/04/08 01:52:52;;;;;;;5.53;2.45;;;;;;;13.27;100.00;95395.97;1038959;28;20017;-72
2024/04/08 01:53:23;;;;;;;8.35;1.88;;;;;;;13.26;100.00;95400.44;1034747;28;20022;-73
2024/04/08 01:53:53;;;;;;;6.03;2.22;;;;;;;13.22;100.00;95399.44;1026889;28;20026;-73
2024/04/08 01:54:24;;;;;;;5.82;1.83;;;;;;;13.22;100.00;95402.06;1030788;28;20018;-72
2024/04/08 01:54:54;;;;;;;13.68;2.38;;;;;;;13.23;100.00;95406.25;1026686;28;20031;-73
2024/04/08 01:55:24;;;;;;;7.60;1.95;;;;;;;13.21;100.00;95409.19;1026662;28;20023;-73
2024/04/08 01:55:55;;;;;;;9.73;2.63;;;;;;;13.22;100.00;95409.97;1026833;28;20019;-73
2024/04/08 01:56:25;;;;;;;4.53;1.83;;;;;;;13.20;100.00;95409.47;1035064;28;20022;-72
2024/04/08 01:56:56;;;;;;;5.22;1.60;;;;;;;13.21;100.00;95408.38;1038699;28;20014;-73
2024/04/08 01:57:27;;;;;;;6.50;1.98;;;;;;;13.20;100.00;95410.25;1030713;28;20039;-72
2024/04/08 01:57:58;;;;;;;7.53;1.83;;;;;;;13.19;100.00;95407.91;1031006;28;20026;-73
2024/04/08 01:58:28;;;;;;;8.18;2.10;;;;;;;13.23;100.00;95411.53;1035012;28;20112;-72
2024/04/08 01:58:59;;;;;;;9.82;2.30;;;;;;;13.20;100.00;95404.19;1037288;28;20501;-72
2024/04/08 01:59:29;;;;;;;5.40;2.33;;;;;;;13.18;100.00;95403.72;1034313;28;20057;-72
2024/04/08 01:59:59;;;;;;;8.02;1.75;;;;;;;13.18;100.00;95403.72;1034945;28;20014;-72
2024/04/08 02:00:30;;;;;;;6.50;2.00;;;;;;;13.21;100.00;95409.19;1042916;28;20021;-72
2024/04/08 02:01:00;;;;;;;11.82;2.58;;;;;;;13.20;100.00;95399.72;1038824;28;20017;-72
2024/04/08 02:01:31;;;;;;;9.80;2.22;;;;;;;13.18;100.00;95403.72;1037332;28;20557;-73
2024/04/08 02:02:01;;;;;;;5.93;2.30;;;;;;;13.15;100.00;95399.81;1038912;28;20401;-73
2024/04/08 02:02:32;;;;;;;8.60;1.83;;;;;;;13.14;100.00;95397.44;1038829;28;20416;-73
2024/04/08 02:03:02;;;;;;;5.93;1.92;;;;;;;13.12;100.00;95400.38;1034879;28;20017;-72
2024/04/08 02:03:32;;;;;;;5.80;2.03;;;;;;;13.12;100.00;95399.59;1041753;28;20017;-72
2024/04/08 02:04:04;;;;;;;7.97;2.33;;;;;;;13.14;100.00;95397.44;1041755;28;20028;-72
2024/04/08 02:04:34;;;;;;;4.75;1.92;;;;;;;13.13;100.00;95395.88;1038013;28;20022;-72
2024/04/08 02:05:05;;;;;;;5.13;2.33;;;;;;;13.12;100.00;95395.09;1027750;28;20086;-72
2024/04/08 02:05:35;;;;;;;7.63;2.70;;;;;;;13.11;100.00;95404.09;1030880;28;20018;-73
2024/04/08 02:06:05;;;;;;;11.77;2.50;;;;;;;13.11;100.00;95403.28;1030991;28;20434;-72
2024/04/08 02:06:36;;;;;;;6.65;2.30;;;;;;;13.08;100.00;95409.13;1039017;28;20358;-72
2024/04/08 02:07:06;;;;;;;8.00;2.47;;;;;;;13.05;100.00;95404.44;1038999;28;20018;-73
2024/04/08 02:07:38;;;;;;;5.80;1.80;;;;;;;12.99;100.00;95393.19;1038742;28;20025;-73
2024/04/08 02:08:08;;;;;;;4.35;1.58;;;;;;;13.06;100.00;95401.50;1030708;28;20568;-73
2024/04/08 02:08:39;;;;;;;8.45;2.20;;;;;;;13.05;100.00;95405.22;1027168;28;20030;-73
2024/04/08 02:09:09;;;;;;;4.13;2.00;;;;;;;13.01;100.00;95388.44;1026838;28;20019;-73
2024/04/08 02:09:40;;;;;;;8.88;2.10;;;;;;;13.01;100.00;95400.78;1030724;28;20474;-73
2024/04/08 02:10:10;;;;;;;6.70;2.45;;;;;;;12.96;100.00;95394.53;1026734;28;20019;-72
2024/04/08 02:10:42;;;;;;;7.05;1.85;;;;;;;13.01;100.00;95403.44;1030832;28;20101;-72
2024/04/08 02:11:13;;;;;;;7.78;2.58;;;;;;;12.99;100.00;95406.34;1030668;28;20014;-73
2024/04/08 02:11:43;;;;;;;9.20;2.70;;;;;;;12.91;100.00;95402.53;1028543;28;20630;-72
2024/04/08 02:12:14;;;;;;;15.18;4.70;;;;;;;12.98;100.00;95407.44;1030678;28;20406;-73
2024/04/08 02:12:45;;;;;;;11.93;4.47;;;;;;;13.01;100.00;95411.31;1037580;28;20048;-72
2024/04/08 02:13:15;;;;;;;30.23;9.68;;;;;;;13.00;100.00;95407.91;1030591;28;20016;-72
2024/04/08 02:13:46;;;;;;;19.38;7.53;;;;;;;13.01;100.00;95406.88;1030907;28;20022;-72
2024/04/08 02:14:16;;;;;;;20.70;7.05;;;;;;;13.01;100.00;95408.69;1031070;28;20025;-72
2024/04/08 02:14:46;;;;;;;30.70;11.27;;;;;;;13.02;100.00;95410.28;1035447;28;20017;-72
2024/04/08 02:15:17;;;;;;;52.70;16.77;;;;;;;13.01;100.00;95413.97;1035213;28;20014;-73
2024/04/08 02:15:47;;;;;;;84.63;29.23;;;;;;;12.98;100.00;95412.69;1035100;28;20026;-72
2024/04/08 02:16:18;;;;;;;60.10;22.33;;;;;;;13.02;100.00;95405.00;1035081;28;20041;-72
2024/04/08 02:16:48;;;;;;;73.40;25.33;;;;;;;13.08;100.00;95403.88;1031203;28;20376;-72
2024/04/08 02:17:19;;;;;;;52.28;19.80;;;;;;;13.03;100.00;95394.19;1035902;28;20026;-73
2024/04/08 02:17:49;;;;;;;39.85;12.68;;;;;;;13.03;100.00;95396.03;1028300;28;20026;-73
2024/04/08 02:18:19;;;;;;;27.38;9.35;;;;;;;13.05;100.00;95399.19;1031637;28;20034;-72
2024/04/08 02:18:50;;;;;;;11.50;3.17;;;;;;;13.18;100.00;95391.31;1026932;28;20627;-72
2024/04/08 02:19:24;;;;;;;14.48;5.03;;;;;;;13.17;100.00;95381.06;1026472;28;20027;-72
2024/04/08 02:20:00;;;;;;;12.60;3.35;;;;;;;13.24;100.00;95384.13;1030630;28;20023;-72
2024/04/08 02:20:36;;;;;;;16.15;3.78;;;;;;;13.23;100.00;95374.66;1030127;28;20024;-72
2024/04/08 02:21:11;;;;;;;16.52;4.57;;;;;;;13.27;100.00;95372.25;1030966;28;20453;-72
2024/04/08 02:21:42;;;;;;;17.95;6.40;;;;;;;13.29;100.00;95378.78;1032313;28;20054;-73
2024/04/08 02:22:13;;;;;;;17.73;5.03;;;;;;;13.27;100.00;95374.88;1028019;28;20410;-72
2024/04/08 02:22:43;;;;;;;9.52;4.40;;;;;;;13.30;100.00;95380.34;1029948;28;20014;-72